sensor_id;sensor_type;location;lat;lon;timestamp;P1;durP1;ratioP1;P2;durP2;ratioP2
13485;SDS011;6815;59.336;17.998;2023-02-15T00:00:31;6.87;;;4.30;;
13485;SDS011;6815;59.336;17.998;2023-02-15T00:02:56;5.90;;;4.50;;
13485;SDS011;6815;59.336;17.998;2023-02-15T00:05:22;8.20;;;4.53;;
13485;SDS011;6815;59.336;17.998;2023-02-15T00:07:48;6.30;;;4.13;;
13485;SDS011;6815;59.336;17.998;2023-02-15T00:10:20;8.07;;;4.30;;
13485;SDS011;6815;59.336;17.998;2023-02-15T00:12:46;4.83;;;3.70;;
13485;SDS011;6815;59.336;17.998;2023-02-15T00:15:12;7.40;;;4.13;;
13485;SDS011;6815;59.336;17.998;2023-02-15T00:17:38;5.20;;;4.17;;
13485;SDS011;6815;59.336;17.998;2023-02-15T00:20:04;8.20;;;4.20;;
13485;SDS011;6815;59.336;17.998;2023-02-15T00:22:30;4.83;;;3.90;;
13485;SDS011;6815;59.336;17.998;2023-02-15T00:24:56;5.03;;;4.00;;
13485;SDS011;6815;59.336;17.998;2023-02-15T00:27:21;5.93;;;4.03;;
13485;SDS011;6815;59.336;17.998;2023-02-15T00:29:47;7.33;;;3.90;;
13485;SDS011;6815;59.336;17.998;2023-02-15T00:32:13;7.73;;;3.60;;
13485;SDS011;6815;59.336;17.998;2023-02-15T00:34:38;8.60;;;4.50;;
13485;SDS011;6815;59.336;17.998;2023-02-15T00:37:03;9.13;;;4.40;;
13485;SDS011;6815;59.336;17.998;2023-02-15T00:39:29;6.50;;;4.00;;
13485;SDS011;6815;59.336;17.998;2023-02-15T00:41:54;7.27;;;4.13;;
13485;SDS011;6815;59.336;17.998;2023-02-15T00:44:23;5.93;;;4.17;;
13485;SDS011;6815;59.336;17.998;2023-02-15T00:46:48;6.60;;;4.33;;
13485;SDS011;6815;59.336;17.998;2023-02-15T00:49:14;8.03;;;4.20;;
13485;SDS011;6815;59.336;17.998;2023-02-15T00:51:39;6.73;;;4.17;;
13485;SDS011;6815;59.336;17.998;2023-02-15T00:54:05;6.67;;;4.30;;
13485;SDS011;6815;59.336;17.998;2023-02-15T00:56:31;8.23;;;4.57;;
13485;SDS011;6815;59.336;17.998;2023-02-15T00:58:59;7.57;;;4.40;;
13485;SDS011;6815;59.336;17.998;2023-02-15T01:01:26;6.73;;;4.40;;
13485;SDS011;6815;59.336;17.998;2023-02-15T01:03:51;6.90;;;4.20;;
13485;SDS011;6815;59.336;17.998;2023-02-15T01:06:17;6.17;;;4.60;;
13485;SDS011;6815;59.336;17.998;2023-02-15T01:08:43;8.53;;;4.77;;
13485;SDS011;6815;59.336;17.998;2023-02-15T01:11:11;5.63;;;4.00;;
13485;SDS011;6815;59.336;17.998;2023-02-15T01:13:38;9.30;;;4.50;;
13485;SDS011;6815;59.336;17.998;2023-02-15T01:16:05;7.83;;;4.80;;
13485;SDS011;6815;59.336;17.998;2023-02-15T01:18:32;6.00;;;4.03;;
13485;SDS011;6815;59.336;17.998;2023-02-15T01:20:58;9.80;;;5.17;;
13485;SDS011;6815;59.336;17.998;2023-02-15T01:23:24;7.23;;;4.30;;
13485;SDS011;6815;59.336;17.998;2023-02-15T01:25:49;8.03;;;4.63;;
13485;SDS011;6815;59.336;17.998;2023-02-15T01:28:15;7.70;;;4.33;;
13485;SDS011;6815;59.336;17.998;2023-02-15T01:30:40;7.30;;;4.50;;
13485;SDS011;6815;59.336;17.998;2023-02-15T01:33:09;8.10;;;4.23;;
13485;SDS011;6815;59.336;17.998;2023-02-15T01:35:42;6.87;;;4.40;;
13485;SDS011;6815;59.336;17.998;2023-02-15T01:38:09;6.50;;;4.40;;
13485;SDS011;6815;59.336;17.998;2023-02-15T01:40:34;10.07;;;4.60;;
13485;SDS011;6815;59.336;17.998;2023-02-15T01:43:00;7.77;;;4.53;;
13485;SDS011;6815;59.336;17.998;2023-02-15T01:45:30;8.80;;;4.47;;
13485;SDS011;6815;59.336;17.998;2023-02-15T01:50:53;7.00;;;4.37;;
13485;SDS011;6815;59.336;17.998;2023-02-15T01:53:36;7.87;;;4.60;;
13485;SDS011;6815;59.336;17.998;2023-02-15T01:56:20;6.90;;;4.30;;
13485;SDS011;6815;59.336;17.998;2023-02-15T01:58:50;7.17;;;4.60;;
13485;SDS011;6815;59.336;17.998;2023-02-15T02:01:20;8.70;;;4.43;;
13485;SDS011;6815;59.336;17.998;2023-02-15T02:06:27;6.37;;;4.47;;
13485;SDS011;6815;59.336;17.998;2023-02-15T02:08:53;5.93;;;3.90;;
13485;SDS011;6815;59.336;17.998;2023-02-15T02:11:20;6.87;;;4.37;;
13485;SDS011;6815;59.336;17.998;2023-02-15T02:13:46;6.67;;;4.70;;
13485;SDS011;6815;59.336;17.998;2023-02-15T02:19:04;8.97;;;3.90;;
13485;SDS011;6815;59.336;17.998;2023-02-15T02:27:41;8.20;;;4.10;;
13485;SDS011;6815;59.336;17.998;2023-02-15T02:33:14;6.10;;;4.23;;
13485;SDS011;6815;59.336;17.998;2023-02-15T02:41:13;7.33;;;4.73;;
13485;SDS011;6815;59.336;17.998;2023-02-15T02:46:34;8.80;;;4.63;;
13485;SDS011;6815;59.336;17.998;2023-02-15T02:49:15;8.40;;;5.50;;
13485;SDS011;6815;59.336;17.998;2023-02-15T02:51:41;9.07;;;5.40;;
13485;SDS011;6815;59.336;17.998;2023-02-15T02:54:09;9.03;;;5.40;;
13485;SDS011;6815;59.336;17.998;2023-02-15T02:59:23;8.17;;;4.87;;
13485;SDS011;6815;59.336;17.998;2023-02-15T03:01:57;7.87;;;4.70;;
13485;SDS011;6815;59.336;17.998;2023-02-15T03:04:32;8.23;;;4.63;;
13485;SDS011;6815;59.336;17.998;2023-02-15T03:07:03;9.57;;;4.83;;
13485;SDS011;6815;59.336;17.998;2023-02-15T03:09:37;6.83;;;5.10;;
13485;SDS011;6815;59.336;17.998;2023-02-15T03:12:14;10.90;;;5.13;;
13485;SDS011;6815;59.336;17.998;2023-02-15T03:14:44;8.73;;;5.07;;
13485;SDS011;6815;59.336;17.998;2023-02-15T03:17:12;10.37;;;5.17;;
13485;SDS011;6815;59.336;17.998;2023-02-15T03:19:39;9.53;;;5.50;;
13485;SDS011;6815;59.336;17.998;2023-02-15T03:22:14;8.00;;;5.07;;
13485;SDS011;6815;59.336;17.998;2023-02-15T03:24:50;10.30;;;5.13;;
13485;SDS011;6815;59.336;17.998;2023-02-15T03:27:25;8.37;;;5.67;;
13485;SDS011;6815;59.336;17.998;2023-02-15T03:29:57;10.07;;;5.83;;
13485;SDS011;6815;59.336;17.998;2023-02-15T03:32:25;9.37;;;6.17;;
13485;SDS011;6815;59.336;17.998;2023-02-15T03:34:55;12.37;;;6.23;;
13485;SDS011;6815;59.336;17.998;2023-02-15T03:37:32;8.10;;;5.23;;
13485;SDS011;6815;59.336;17.998;2023-02-15T03:40:18;9.43;;;5.83;;
13485;SDS011;6815;59.336;17.998;2023-02-15T03:46:25;11.47;;;6.47;;
13485;SDS011;6815;59.336;17.998;2023-02-15T03:49:03;11.10;;;6.13;;
13485;SDS011;6815;59.336;17.998;2023-02-15T03:51:46;10.70;;;6.67;;
13485;SDS011;6815;59.336;17.998;2023-02-15T03:57:04;11.23;;;6.73;;
13485;SDS011;6815;59.336;17.998;2023-02-15T03:59:52;12.73;;;7.57;;
13485;SDS011;6815;59.336;17.998;2023-02-15T04:05:40;11.13;;;7.07;;
13485;SDS011;6815;59.336;17.998;2023-02-15T04:08:07;11.67;;;7.40;;
13485;SDS011;6815;59.336;17.998;2023-02-15T04:10:34;11.93;;;7.23;;
13485;SDS011;6815;59.336;17.998;2023-02-15T04:13:21;14.90;;;7.70;;
13485;SDS011;6815;59.336;17.998;2023-02-15T04:15:49;13.90;;;7.57;;
13485;SDS011;6815;59.336;17.998;2023-02-15T04:18:28;10.63;;;6.90;;
13485;SDS011;6815;59.336;17.998;2023-02-15T04:21:20;12.73;;;7.50;;
13485;SDS011;6815;59.336;17.998;2023-02-15T04:24:09;13.70;;;7.17;;
13485;SDS011;6815;59.336;17.998;2023-02-15T04:26:54;11.67;;;7.53;;
13485;SDS011;6815;59.336;17.998;2023-02-15T04:29:23;15.40;;;7.97;;
13485;SDS011;6815;59.336;17.998;2023-02-15T04:31:52;13.43;;;7.90;;
13485;SDS011;6815;59.336;17.998;2023-02-15T04:34:18;13.23;;;8.00;;
13485;SDS011;6815;59.336;17.998;2023-02-15T04:36:44;12.87;;;7.30;;
13485;SDS011;6815;59.336;17.998;2023-02-15T04:39:12;11.80;;;7.73;;
13485;SDS011;6815;59.336;17.998;2023-02-15T04:41:42;12.83;;;7.63;;
13485;SDS011;6815;59.336;17.998;2023-02-15T04:44:08;11.77;;;7.67;;
13485;SDS011;6815;59.336;17.998;2023-02-15T04:46:34;12.43;;;7.63;;
13485;SDS011;6815;59.336;17.998;2023-02-15T04:49:00;14.33;;;7.53;;
13485;SDS011;6815;59.336;17.998;2023-02-15T04:51:26;12.87;;;7.70;;
13485;SDS011;6815;59.336;17.998;2023-02-15T04:53:51;13.57;;;8.07;;
13485;SDS011;6815;59.336;17.998;2023-02-15T04:56:20;15.27;;;8.60;;
13485;SDS011;6815;59.336;17.998;2023-02-15T04:58:46;14.00;;;8.27;;
13485;SDS011;6815;59.336;17.998;2023-02-15T05:01:11;11.60;;;7.73;;
13485;SDS011;6815;59.336;17.998;2023-02-15T05:03:39;14.77;;;8.00;;
13485;SDS011;6815;59.336;17.998;2023-02-15T05:06:07;14.33;;;8.07;;
13485;SDS011;6815;59.336;17.998;2023-02-15T05:08:33;15.30;;;9.20;;
13485;SDS011;6815;59.336;17.998;2023-02-15T05:11:00;15.97;;;9.73;;
13485;SDS011;6815;59.336;17.998;2023-02-15T05:13:25;14.80;;;8.90;;
13485;SDS011;6815;59.336;17.998;2023-02-15T05:15:51;13.00;;;8.13;;
13485;SDS011;6815;59.336;17.998;2023-02-15T05:18:18;14.07;;;9.13;;
13485;SDS011;6815;59.336;17.998;2023-02-15T05:20:45;14.67;;;8.83;;
13485;SDS011;6815;59.336;17.998;2023-02-15T05:23:11;15.10;;;8.77;;
13485;SDS011;6815;59.336;17.998;2023-02-15T05:25:38;15.47;;;8.50;;
13485;SDS011;6815;59.336;17.998;2023-02-15T05:28:23;14.97;;;8.77;;
13485;SDS011;6815;59.336;17.998;2023-02-15T05:30:51;15.93;;;8.90;;
13485;SDS011;6815;59.336;17.998;2023-02-15T05:33:46;15.10;;;9.03;;
13485;SDS011;6815;59.336;17.998;2023-02-15T05:36:11;16.40;;;9.37;;
13485;SDS011;6815;59.336;17.998;2023-02-15T05:38:39;16.80;;;9.27;;
13485;SDS011;6815;59.336;17.998;2023-02-15T05:41:06;15.80;;;9.13;;
13485;SDS011;6815;59.336;17.998;2023-02-15T05:43:33;15.47;;;8.90;;
13485;SDS011;6815;59.336;17.998;2023-02-15T05:46:00;15.37;;;8.60;;
13485;SDS011;6815;59.336;17.998;2023-02-15T05:48:26;16.17;;;9.37;;
13485;SDS011;6815;59.336;17.998;2023-02-15T05:51:03;16.40;;;9.47;;
13485;SDS011;6815;59.336;17.998;2023-02-15T05:53:36;17.37;;;9.77;;
13485;SDS011;6815;59.336;17.998;2023-02-15T05:56:03;18.73;;;9.93;;
13485;SDS011;6815;59.336;17.998;2023-02-15T05:58:38;15.27;;;9.33;;
13485;SDS011;6815;59.336;17.998;2023-02-15T06:01:11;15.83;;;8.77;;
13485;SDS011;6815;59.336;17.998;2023-02-15T06:03:44;14.97;;;8.97;;
13485;SDS011;6815;59.336;17.998;2023-02-15T06:06:10;15.57;;;9.03;;
13485;SDS011;6815;59.336;17.998;2023-02-15T06:08:40;17.53;;;9.23;;
13485;SDS011;6815;59.336;17.998;2023-02-15T06:11:07;15.27;;;9.17;;
13485;SDS011;6815;59.336;17.998;2023-02-15T06:13:35;15.57;;;9.23;;
13485;SDS011;6815;59.336;17.998;2023-02-15T06:16:01;16.63;;;9.97;;
13485;SDS011;6815;59.336;17.998;2023-02-15T06:18:32;14.77;;;9.57;;
13485;SDS011;6815;59.336;17.998;2023-02-15T06:20:58;18.30;;;9.47;;
13485;SDS011;6815;59.336;17.998;2023-02-15T06:23:27;17.00;;;9.57;;
13485;SDS011;6815;59.336;17.998;2023-02-15T06:25:53;16.13;;;9.37;;
13485;SDS011;6815;59.336;17.998;2023-02-15T06:28:19;15.93;;;9.37;;
13485;SDS011;6815;59.336;17.998;2023-02-15T06:30:44;15.67;;;8.87;;
13485;SDS011;6815;59.336;17.998;2023-02-15T06:33:10;16.53;;;9.70;;
13485;SDS011;6815;59.336;17.998;2023-02-15T06:35:36;15.87;;;8.77;;
13485;SDS011;6815;59.336;17.998;2023-02-15T06:38:01;16.97;;;8.80;;
13485;SDS011;6815;59.336;17.998;2023-02-15T06:40:27;14.77;;;8.40;;
13485;SDS011;6815;59.336;17.998;2023-02-15T06:42:53;15.23;;;8.73;;
13485;SDS011;6815;59.336;17.998;2023-02-15T06:45:18;16.57;;;9.90;;
13485;SDS011;6815;59.336;17.998;2023-02-15T06:47:44;16.73;;;8.73;;
13485;SDS011;6815;59.336;17.998;2023-02-15T06:50:10;15.87;;;8.90;;
13485;SDS011;6815;59.336;17.998;2023-02-15T06:52:36;14.10;;;9.17;;
13485;SDS011;6815;59.336;17.998;2023-02-15T06:55:02;15.80;;;9.07;;
13485;SDS011;6815;59.336;17.998;2023-02-15T06:57:31;16.30;;;9.70;;
13485;SDS011;6815;59.336;17.998;2023-02-15T06:59:58;14.60;;;8.23;;
13485;SDS011;6815;59.336;17.998;2023-02-15T07:02:23;17.87;;;9.07;;
13485;SDS011;6815;59.336;17.998;2023-02-15T07:04:50;16.13;;;9.80;;
13485;SDS011;6815;59.336;17.998;2023-02-15T07:07:22;14.57;;;9.37;;
13485;SDS011;6815;59.336;17.998;2023-02-15T07:09:47;15.83;;;9.20;;
13485;SDS011;6815;59.336;17.998;2023-02-15T07:12:13;13.03;;;8.17;;
13485;SDS011;6815;59.336;17.998;2023-02-15T07:14:58;16.20;;;9.07;;
13485;SDS011;6815;59.336;17.998;2023-02-15T07:17:23;14.30;;;8.37;;
13485;SDS011;6815;59.336;17.998;2023-02-15T07:19:49;13.87;;;8.67;;
13485;SDS011;6815;59.336;17.998;2023-02-15T07:22:14;12.97;;;8.17;;
13485;SDS011;6815;59.336;17.998;2023-02-15T07:24:40;15.57;;;8.97;;
13485;SDS011;6815;59.336;17.998;2023-02-15T07:27:08;13.93;;;8.57;;
13485;SDS011;6815;59.336;17.998;2023-02-15T07:29:34;14.13;;;8.30;;
13485;SDS011;6815;59.336;17.998;2023-02-15T07:32:00;14.03;;;8.50;;
13485;SDS011;6815;59.336;17.998;2023-02-15T07:34:25;15.23;;;8.93;;
13485;SDS011;6815;59.336;17.998;2023-02-15T07:36:51;12.80;;;7.23;;
13485;SDS011;6815;59.336;17.998;2023-02-15T07:39:16;12.73;;;8.30;;
13485;SDS011;6815;59.336;17.998;2023-02-15T07:41:42;16.23;;;8.30;;
13485;SDS011;6815;59.336;17.998;2023-02-15T07:44:11;13.57;;;8.23;;
13485;SDS011;6815;59.336;17.998;2023-02-15T07:46:40;12.97;;;8.07;;
13485;SDS011;6815;59.336;17.998;2023-02-15T07:49:05;10.13;;;7.07;;
13485;SDS011;6815;59.336;17.998;2023-02-15T07:51:31;11.93;;;7.80;;
13485;SDS011;6815;59.336;17.998;2023-02-15T07:53:57;13.20;;;8.17;;
13485;SDS011;6815;59.336;17.998;2023-02-15T07:56:22;12.77;;;7.73;;
13485;SDS011;6815;59.336;17.998;2023-02-15T07:58:47;12.37;;;7.57;;
13485;SDS011;6815;59.336;17.998;2023-02-15T08:01:17;11.13;;;7.77;;
13485;SDS011;6815;59.336;17.998;2023-02-15T08:03:44;11.13;;;7.30;;
13485;SDS011;6815;59.336;17.998;2023-02-15T08:06:10;11.70;;;7.57;;
13485;SDS011;6815;59.336;17.998;2023-02-15T08:08:39;11.40;;;7.37;;
13485;SDS011;6815;59.336;17.998;2023-02-15T08:13:57;13.07;;;7.50;;
13485;SDS011;6815;59.336;17.998;2023-02-15T08:16:26;11.93;;;7.50;;
13485;SDS011;6815;59.336;17.998;2023-02-15T08:19:02;10.50;;;7.03;;
13485;SDS011;6815;59.336;17.998;2023-02-15T08:21:48;11.63;;;7.30;;
13485;SDS011;6815;59.336;17.998;2023-02-15T08:24:24;11.07;;;7.00;;
13485;SDS011;6815;59.336;17.998;2023-02-15T08:26:55;9.80;;;6.83;;
13485;SDS011;6815;59.336;17.998;2023-02-15T08:29:23;11.67;;;7.00;;
13485;SDS011;6815;59.336;17.998;2023-02-15T08:31:55;10.50;;;6.70;;
13485;SDS011;6815;59.336;17.998;2023-02-15T08:34:27;9.30;;;6.37;;
13485;SDS011;6815;59.336;17.998;2023-02-15T08:36:54;10.30;;;6.20;;
13485;SDS011;6815;59.336;17.998;2023-02-15T08:39:20;12.87;;;7.07;;
13485;SDS011;6815;59.336;17.998;2023-02-15T08:41:46;11.10;;;6.90;;
13485;SDS011;6815;59.336;17.998;2023-02-15T08:44:14;11.23;;;7.33;;
13485;SDS011;6815;59.336;17.998;2023-02-15T08:46:44;13.37;;;7.80;;
13485;SDS011;6815;59.336;17.998;2023-02-15T08:49:12;12.97;;;6.93;;
13485;SDS011;6815;59.336;17.998;2023-02-15T08:51:40;13.20;;;7.47;;
13485;SDS011;6815;59.336;17.998;2023-02-15T08:54:07;11.57;;;6.57;;
13485;SDS011;6815;59.336;17.998;2023-02-15T08:56:36;10.43;;;6.70;;
13485;SDS011;6815;59.336;17.998;2023-02-15T08:59:04;10.70;;;6.70;;
13485;SDS011;6815;59.336;17.998;2023-02-15T09:01:31;11.03;;;6.93;;
13485;SDS011;6815;59.336;17.998;2023-02-15T09:03:59;10.10;;;6.33;;
13485;SDS011;6815;59.336;17.998;2023-02-15T09:06:26;11.77;;;6.83;;
13485;SDS011;6815;59.336;17.998;2023-02-15T09:08:52;10.70;;;6.17;;
13485;SDS011;6815;59.336;17.998;2023-02-15T09:11:20;10.60;;;6.23;;
13485;SDS011;6815;59.336;17.998;2023-02-15T09:13:51;9.93;;;5.80;;
13485;SDS011;6815;59.336;17.998;2023-02-15T09:16:29;11.53;;;6.47;;
13485;SDS011;6815;59.336;17.998;2023-02-15T09:18:57;9.07;;;5.67;;
13485;SDS011;6815;59.336;17.998;2023-02-15T09:21:24;12.63;;;6.23;;
13485;SDS011;6815;59.336;17.998;2023-02-15T09:23:55;14.13;;;6.27;;
13485;SDS011;6815;59.336;17.998;2023-02-15T09:26:29;9.97;;;6.40;;
13485;SDS011;6815;59.336;17.998;2023-02-15T09:28:57;7.80;;;5.50;;
13485;SDS011;6815;59.336;17.998;2023-02-15T09:31:39;8.90;;;5.93;;
13485;SDS011;6815;59.336;17.998;2023-02-15T09:34:09;9.63;;;5.93;;
13485;SDS011;6815;59.336;17.998;2023-02-15T09:36:35;10.73;;;5.93;;
13485;SDS011;6815;59.336;17.998;2023-02-15T09:39:10;8.63;;;5.07;;
13485;SDS011;6815;59.336;17.998;2023-02-15T09:58:11;8.20;;;5.67;;
13485;SDS011;6815;59.336;17.998;2023-02-15T10:00:46;8.13;;;5.30;;
13485;SDS011;6815;59.336;17.998;2023-02-15T10:11:16;10.73;;;6.20;;
13485;SDS011;6815;59.336;17.998;2023-02-15T10:17:09;11.73;;;6.63;;
13485;SDS011;6815;59.336;17.998;2023-02-15T10:19:58;9.70;;;5.70;;
13485;SDS011;6815;59.336;17.998;2023-02-15T10:28:19;9.33;;;6.03;;
13485;SDS011;6815;59.336;17.998;2023-02-15T10:31:07;9.83;;;6.17;;
13485;SDS011;6815;59.336;17.998;2023-02-15T10:33:41;12.13;;;5.97;;
13485;SDS011;6815;59.336;17.998;2023-02-15T10:36:16;9.17;;;5.30;;
13485;SDS011;6815;59.336;17.998;2023-02-15T10:50:15;13.60;;;6.73;;
13485;SDS011;6815;59.336;17.998;2023-02-15T10:52:54;11.23;;;6.17;;
13485;SDS011;6815;59.336;17.998;2023-02-15T11:06:43;15.53;;;6.83;;
13485;SDS011;6815;59.336;17.998;2023-02-15T11:09:17;12.40;;;7.13;;
13485;SDS011;6815;59.336;17.998;2023-02-15T11:11:48;15.60;;;7.27;;
13485;SDS011;6815;59.336;17.998;2023-02-15T11:16:59;14.00;;;6.87;;
13485;SDS011;6815;59.336;17.998;2023-02-15T11:19:46;13.40;;;7.67;;
13485;SDS011;6815;59.336;17.998;2023-02-15T11:22:33;14.60;;;7.47;;
13485;SDS011;6815;59.336;17.998;2023-02-15T11:25:00;12.87;;;7.53;;
13485;SDS011;6815;59.336;17.998;2023-02-15T11:27:33;14.10;;;7.77;;
13485;SDS011;6815;59.336;17.998;2023-02-15T11:30:09;12.70;;;7.43;;
13485;SDS011;6815;59.336;17.998;2023-02-15T11:32:44;13.83;;;7.70;;
13485;SDS011;6815;59.336;17.998;2023-02-15T11:40:30;15.43;;;7.27;;
13485;SDS011;6815;59.336;17.998;2023-02-15T11:42:58;15.87;;;8.13;;
13485;SDS011;6815;59.336;17.998;2023-02-15T11:45:29;13.97;;;7.57;;
13485;SDS011;6815;59.336;17.998;2023-02-15T11:47:56;14.87;;;7.80;;
13485;SDS011;6815;59.336;17.998;2023-02-15T11:50:23;11.57;;;6.57;;
13485;SDS011;6815;59.336;17.998;2023-02-15T11:52:50;14.83;;;7.53;;
13485;SDS011;6815;59.336;17.998;2023-02-15T11:55:19;11.70;;;7.03;;
13485;SDS011;6815;59.336;17.998;2023-02-15T11:57:54;12.10;;;7.80;;
13485;SDS011;6815;59.336;17.998;2023-02-15T12:00:33;14.37;;;8.13;;
13485;SDS011;6815;59.336;17.998;2023-02-15T12:03:15;12.57;;;7.23;;
13485;SDS011;6815;59.336;17.998;2023-02-15T12:05:51;13.73;;;6.77;;
13485;SDS011;6815;59.336;17.998;2023-02-15T12:08:20;13.03;;;7.50;;
13485;SDS011;6815;59.336;17.998;2023-02-15T12:13:19;15.10;;;7.30;;
13485;SDS011;6815;59.336;17.998;2023-02-15T12:15:46;12.37;;;7.47;;
13485;SDS011;6815;59.336;17.998;2023-02-15T12:20:59;14.00;;;7.53;;
13485;SDS011;6815;59.336;17.998;2023-02-15T12:23:28;14.30;;;7.33;;
13485;SDS011;6815;59.336;17.998;2023-02-15T12:25:56;12.33;;;7.43;;
13485;SDS011;6815;59.336;17.998;2023-02-15T12:30:57;15.67;;;7.37;;
13485;SDS011;6815;59.336;17.998;2023-02-15T12:33:26;16.77;;;7.93;;
13485;SDS011;6815;59.336;17.998;2023-02-15T12:39:02;14.10;;;8.00;;
13485;SDS011;6815;59.336;17.998;2023-02-15T12:41:31;16.90;;;8.47;;
13485;SDS011;6815;59.336;17.998;2023-02-15T12:44:58;14.07;;;8.03;;
13485;SDS011;6815;59.336;17.998;2023-02-15T12:52:02;13.17;;;7.17;;
13485;SDS011;6815;59.336;17.998;2023-02-15T12:54:42;15.43;;;8.33;;
13485;SDS011;6815;59.336;17.998;2023-02-15T12:57:28;15.23;;;8.57;;
13485;SDS011;6815;59.336;17.998;2023-02-15T13:05:19;15.33;;;8.27;;
13485;SDS011;6815;59.336;17.998;2023-02-15T13:08:01;16.63;;;8.37;;
13485;SDS011;6815;59.336;17.998;2023-02-15T13:13:18;12.70;;;7.50;;
13485;SDS011;6815;59.336;17.998;2023-02-15T13:15:48;17.93;;;8.37;;
13485;SDS011;6815;59.336;17.998;2023-02-15T13:18:26;15.53;;;8.07;;
13485;SDS011;6815;59.336;17.998;2023-02-15T13:20:56;15.17;;;8.47;;
13485;SDS011;6815;59.336;17.998;2023-02-15T13:26:03;15.00;;;8.53;;
13485;SDS011;6815;59.336;17.998;2023-02-15T13:28:40;16.37;;;8.50;;
13485;SDS011;6815;59.336;17.998;2023-02-15T13:31:14;15.00;;;7.97;;
13485;SDS011;6815;59.336;17.998;2023-02-15T13:33:56;16.63;;;8.13;;
13485;SDS011;6815;59.336;17.998;2023-02-15T13:36:29;14.70;;;7.90;;
13485;SDS011;6815;59.336;17.998;2023-02-15T13:47:26;14.67;;;7.83;;
13485;SDS011;6815;59.336;17.998;2023-02-15T14:01:10;13.23;;;7.93;;
13485;SDS011;6815;59.336;17.998;2023-02-15T14:12:37;16.30;;;7.13;;
13485;SDS011;6815;59.336;17.998;2023-02-15T14:21:51;14.60;;;8.17;;
13485;SDS011;6815;59.336;17.998;2023-02-15T14:31:41;13.53;;;7.53;;
13485;SDS011;6815;59.336;17.998;2023-02-15T14:34:19;16.20;;;7.37;;
13485;SDS011;6815;59.336;17.998;2023-02-15T14:36:49;12.30;;;7.07;;
13485;SDS011;6815;59.336;17.998;2023-02-15T14:39:31;12.37;;;6.90;;
13485;SDS011;6815;59.336;17.998;2023-02-15T14:42:35;14.20;;;7.47;;
13485;SDS011;6815;59.336;17.998;2023-02-15T14:47:56;14.57;;;7.60;;
13485;SDS011;6815;59.336;17.998;2023-02-15T14:55:39;10.33;;;6.47;;
13485;SDS011;6815;59.336;17.998;2023-02-15T14:58:09;12.23;;;7.40;;
13485;SDS011;6815;59.336;17.998;2023-02-15T15:00:37;11.50;;;6.97;;
13485;SDS011;6815;59.336;17.998;2023-02-15T15:03:37;13.13;;;6.73;;
13485;SDS011;6815;59.336;17.998;2023-02-15T15:05:56;10.57;;;6.27;;
13485;SDS011;6815;59.336;17.998;2023-02-15T15:08:28;15.77;;;6.63;;
13485;SDS011;6815;59.336;17.998;2023-02-15T15:10:59;10.67;;;6.27;;
13485;SDS011;6815;59.336;17.998;2023-02-15T15:13:59;13.70;;;6.73;;
13485;SDS011;6815;59.336;17.998;2023-02-15T15:16:27;11.33;;;6.93;;
13485;SDS011;6815;59.336;17.998;2023-02-15T15:18:56;11.57;;;6.80;;
13485;SDS011;6815;59.336;17.998;2023-02-15T15:48:59;10.53;;;6.20;;
13485;SDS011;6815;59.336;17.998;2023-02-15T15:51:40;12.93;;;6.33;;
13485;SDS011;6815;59.336;17.998;2023-02-15T15:54:12;10.87;;;6.07;;
13485;SDS011;6815;59.336;17.998;2023-02-15T15:56:41;10.83;;;6.23;;
13485;SDS011;6815;59.336;17.998;2023-02-15T15:59:17;10.63;;;5.77;;
13485;SDS011;6815;59.336;17.998;2023-02-15T16:01:47;15.60;;;6.70;;
13485;SDS011;6815;59.336;17.998;2023-02-15T16:04:13;10.87;;;6.17;;
13485;SDS011;6815;59.336;17.998;2023-02-15T16:06:51;10.40;;;5.30;;
13485;SDS011;6815;59.336;17.998;2023-02-15T16:09:18;9.70;;;5.53;;
13485;SDS011;6815;59.336;17.998;2023-02-15T16:11:48;11.23;;;6.07;;
13485;SDS011;6815;59.336;17.998;2023-02-15T16:14:37;10.43;;;6.03;;
13485;SDS011;6815;59.336;17.998;2023-02-15T16:17:08;8.83;;;5.67;;
13485;SDS011;6815;59.336;17.998;2023-02-15T16:19:43;8.93;;;5.63;;
13485;SDS011;6815;59.336;17.998;2023-02-15T16:22:10;11.57;;;6.57;;
13485;SDS011;6815;59.336;17.998;2023-02-15T16:27:53;9.80;;;5.70;;
13485;SDS011;6815;59.336;17.998;2023-02-15T16:32:47;10.67;;;6.33;;
13485;SDS011;6815;59.336;17.998;2023-02-15T16:35:14;10.50;;;6.07;;
13485;SDS011;6815;59.336;17.998;2023-02-15T16:37:42;10.53;;;6.60;;
13485;SDS011;6815;59.336;17.998;2023-02-15T16:40:27;10.97;;;6.70;;
13485;SDS011;6815;59.336;17.998;2023-02-15T16:42:55;11.03;;;6.83;;
13485;SDS011;6815;59.336;17.998;2023-02-15T16:45:23;12.17;;;6.77;;
13485;SDS011;6815;59.336;17.998;2023-02-15T16:47:52;11.03;;;6.87;;
13485;SDS011;6815;59.336;17.998;2023-02-15T16:50:27;13.63;;;7.03;;
13485;SDS011;6815;59.336;17.998;2023-02-15T16:52:53;13.20;;;6.23;;
13485;SDS011;6815;59.336;17.998;2023-02-15T16:55:20;12.43;;;6.70;;
13485;SDS011;6815;59.336;17.998;2023-02-15T16:57:53;11.13;;;6.60;;
13485;SDS011;6815;59.336;17.998;2023-02-15T17:00:25;10.23;;;5.93;;
13485;SDS011;6815;59.336;17.998;2023-02-15T17:03:08;10.60;;;6.37;;
13485;SDS011;6815;59.336;17.998;2023-02-15T17:05:46;11.33;;;6.63;;
13485;SDS011;6815;59.336;17.998;2023-02-15T17:08:24;9.70;;;6.30;;
13485;SDS011;6815;59.336;17.998;2023-02-15T17:13:38;11.57;;;7.23;;
13485;SDS011;6815;59.336;17.998;2023-02-15T17:18:45;10.00;;;6.10;;
13485;SDS011;6815;59.336;17.998;2023-02-15T17:21:18;9.50;;;6.37;;
13485;SDS011;6815;59.336;17.998;2023-02-15T17:23:49;12.60;;;6.40;;
13485;SDS011;6815;59.336;17.998;2023-02-15T17:28:53;13.83;;;7.30;;
13485;SDS011;6815;59.336;17.998;2023-02-15T17:31:22;10.43;;;6.47;;
13485;SDS011;6815;59.336;17.998;2023-02-15T17:33:54;12.43;;;6.27;;
13485;SDS011;6815;59.336;17.998;2023-02-15T17:36:25;11.20;;;6.60;;
13485;SDS011;6815;59.336;17.998;2023-02-15T17:41:25;10.60;;;6.70;;
13485;SDS011;6815;59.336;17.998;2023-02-15T17:43:52;10.10;;;6.50;;
13485;SDS011;6815;59.336;17.998;2023-02-15T17:46:18;11.57;;;6.30;;
13485;SDS011;6815;59.336;17.998;2023-02-15T17:48:47;13.20;;;6.57;;
13485;SDS011;6815;59.336;17.998;2023-02-15T17:51:14;10.93;;;6.27;;
13485;SDS011;6815;59.336;17.998;2023-02-15T17:53:44;10.57;;;5.80;;
13485;SDS011;6815;59.336;17.998;2023-02-15T17:56:30;9.97;;;5.53;;
13485;SDS011;6815;59.336;17.998;2023-02-15T17:58:57;8.97;;;5.60;;
13485;SDS011;6815;59.336;17.998;2023-02-15T18:01:23;10.87;;;5.83;;
13485;SDS011;6815;59.336;17.998;2023-02-15T18:04:08;8.97;;;5.70;;
13485;SDS011;6815;59.336;17.998;2023-02-15T18:06:56;10.93;;;5.80;;
13485;SDS011;6815;59.336;17.998;2023-02-15T18:09:41;9.73;;;6.00;;
13485;SDS011;6815;59.336;17.998;2023-02-15T18:12:34;10.90;;;6.43;;
13485;SDS011;6815;59.336;17.998;2023-02-15T18:15:03;9.67;;;6.00;;
13485;SDS011;6815;59.336;17.998;2023-02-15T18:19:58;9.07;;;5.70;;
13485;SDS011;6815;59.336;17.998;2023-02-15T18:22:26;14.17;;;6.93;;
13485;SDS011;6815;59.336;17.998;2023-02-15T18:24:53;12.37;;;6.67;;
13485;SDS011;6815;59.336;17.998;2023-02-15T18:27:19;11.40;;;6.37;;
13485;SDS011;6815;59.336;17.998;2023-02-15T18:29:45;10.33;;;6.17;;
13485;SDS011;6815;59.336;17.998;2023-02-15T18:32:16;11.60;;;6.83;;
13485;SDS011;6815;59.336;17.998;2023-02-15T18:34:46;13.87;;;6.97;;
13485;SDS011;6815;59.336;17.998;2023-02-15T18:37:14;13.03;;;6.57;;
13485;SDS011;6815;59.336;17.998;2023-02-15T18:39:44;16.43;;;7.73;;
13485;SDS011;6815;59.336;17.998;2023-02-15T18:42:25;12.67;;;7.50;;
13485;SDS011;6815;59.336;17.998;2023-02-15T18:44:56;15.13;;;7.97;;
13485;SDS011;6815;59.336;17.998;2023-02-15T18:47:23;12.93;;;7.13;;